Weather at Polichnitos [CLOSED]

Public forecast

Using degrees Celsius for public forecast. Weather courtesy of forecast.io.

Closest aviation weather report (METAR) to Polichnitos

Closest report is Mytilene International Airport, 18.9 nm (34.9 km) E. Retrieved 2021/04/12 21:50 UTC (49 minutes ago):

LGMT 122150Z VRB03KT CAVOK 12/06 Q1021

Closest aviation forecast (TAF) to Polichnitos

Forecast is more than 12 hours old.

Closest forecast is Mytilene International Airport, 18.9 nm (34.9 km) E. Retrieved 2012/09/21 03:06 UTC (9 years ago):

TAF LGMT 210200Z 2103/2115 VRB05KT 9999 SCT020 BECMG 2103/2105 30015KT PROB30 TEMPO 2103/2106 7000 RA SCT018 BKN030 BECMG 2107/2109 29012KT